createdAt,value
2023-03-22T00:00:20.502Z,99718.63
2023-03-22T00:03:16.360Z,99712.81
2023-03-22T00:06:02.802Z,99720.66
2023-03-22T00:08:40.441Z,99721.97
2023-03-22T00:11:27.125Z,99718.91
2023-03-22T00:14:12.280Z,99726.56
2023-03-22T00:16:53.456Z,99721.56
2023-03-22T00:19:37.234Z,99722.19
2023-03-22T00:22:18.410Z,99719.28
2023-03-22T00:24:59.114Z,99712.53
2023-03-22T00:27:42.911Z,99715.09
2023-03-22T00:30:21.425Z,99712.91
2023-03-22T00:33:06.111Z,99713.41
2023-03-22T00:36:04.929Z,99719.00
2023-03-22T00:38:47.085Z,99713.34
2023-03-22T00:41:36.749Z,99708.44
2023-03-22T00:44:17.681Z,99699.84
2023-03-22T00:46:59.270Z,99700.88
2023-03-22T00:49:45.877Z,99701.81
2023-03-22T00:52:21.832Z,99705.28
2023-03-22T00:55:08.047Z,99696.25
2023-03-22T00:57:50.516Z,99705.34
2023-03-22T01:00:34.078Z,99697.09
2023-03-22T01:03:18.964Z,99697.91
2023-03-22T01:06:03.028Z,99699.19
2023-03-22T01:08:47.486Z,99698.44
2023-03-22T01:11:39.753Z,99689.47
2023-03-22T01:14:24.076Z,99686.69
2023-03-22T01:17:16.369Z,99683.19
2023-03-22T01:19:58.402Z,99682.19
2023-03-22T01:22:42.232Z,99683.50
2023-03-22T01:25:23.530Z,99690.03
2023-03-22T01:28:06.888Z,99689.66
2023-03-22T01:30:48.179Z,99687.88
2023-03-22T01:33:32.117Z,99686.41
2023-03-22T01:36:18.731Z,99689.50
2023-03-22T01:38:55.735Z,99679.28
2023-03-22T01:41:45.028Z,99678.97
2023-03-22T01:44:32.966Z,99686.78
2023-03-22T01:47:17.160Z,99686.31
2023-03-22T01:50:03.034Z,99682.63
2023-03-22T01:52:52.760Z,99687.84
2023-03-22T01:55:36.980Z,99683.81
2023-03-22T01:58:24.873Z,99678.88
2023-03-22T02:01:16.633Z,99682.78
2023-03-22T02:04:10.934Z,99684.13
2023-03-22T02:07:00.080Z,99679.47
2023-03-22T02:09:50.170Z,99687.19
2023-03-22T02:12:43.908Z,99688.38
2023-03-22T02:16:16.845Z,99698.28
2023-03-22T02:20:12.283Z,99697.81
2023-03-22T02:23:17.494Z,99690.81
2023-03-22T02:26:29.427Z,99693.00
2023-03-22T02:29:12.817Z,99699.63
2023-03-22T02:32:19.551Z,99692.25
2023-03-22T02:35:01.087Z,99692.41
2023-03-22T02:37:47.789Z,99686.56
2023-03-22T02:40:41.863Z,99688.25
2023-03-22T02:43:33.611Z,99695.47
2023-03-22T02:46:28.961Z,99699.91
2023-03-22T02:49:28.496Z,99696.19
2023-03-22T02:52:33.645Z,99693.22
2023-03-22T02:55:22.104Z,99690.34
2023-03-22T02:58:32.330Z,99705.81
2023-03-22T03:01:20.187Z,99697.16
2023-03-22T03:03:59.390Z,99704.88
2023-03-22T03:06:46.395Z,99705.34
2023-03-22T03:09:30.538Z,99700.13
2023-03-22T03:12:08.963Z,99706.00
2023-03-22T03:14:42.306Z,99714.72
2023-03-22T03:17:56.442Z,99698.69
2023-03-22T03:20:49.996Z,99699.53
2023-03-22T03:23:46.930Z,99695.69
2023-03-22T03:26:33.392Z,99693.22
2023-03-22T03:29:41.548Z,99695.13
2023-03-22T03:32:46.318Z,99690.25
2023-03-22T03:35:48.422Z,99700.72
2023-03-22T03:38:31.151Z,99706.28
2023-03-22T03:41:26.976Z,99696.03
2023-03-22T03:44:07.719Z,99687.06
2023-03-22T03:46:41.830Z,99695.47
2023-03-22T03:49:27.468Z,99688.16
2023-03-22T03:52:06.850Z,99699.47
2023-03-22T03:54:48.915Z,99715.06
2023-03-22T03:57:31.437Z,99709.84
2023-03-22T04:00:15.138Z,99701.09
2023-03-22T04:03:18.565Z,99704.06
2023-03-22T04:06:28.928Z,99711.47
2023-03-22T04:09:18.292Z,99703.28
2023-03-22T04:12:00.007Z,99708.09
2023-03-22T04:14:46.535Z,99713.09
2023-03-22T04:17:38.449Z,99720.06
2023-03-22T04:20:22.216Z,99717.22
2023-03-22T04:23:06.602Z,99724.25
2023-03-22T04:25:50.314Z,99709.84
2023-03-22T04:28:43.341Z,99702.38
2023-03-22T04:31:35.747Z,99695.06
2023-03-22T04:34:36.209Z,99698.13
2023-03-22T04:37:20.248Z,99703.00
2023-03-22T04:40:20.588Z,99708.44
2023-03-22T04:43:15.763Z,99703.00
2023-03-22T04:46:05.504Z,99713.69
2023-03-22T04:48:53.903Z,99723.53
2023-03-22T04:51:39.347Z,99734.75
2023-03-22T04:54:46.495Z,99729.81
2023-03-22T04:57:38.254Z,99730.81
2023-03-22T05:00:19.971Z,99728.97
2023-03-22T05:03:02.014Z,99724.50
2023-03-22T05:06:09.042Z,99731.56
2023-03-22T05:08:59.017Z,99739.50
2023-03-22T05:11:37.742Z,99748.00
2023-03-22T05:14:38.089Z,99745.00
2023-03-22T05:17:24.398Z,99748.28
2023-03-22T05:20:11.269Z,99738.16
2023-03-22T05:23:12.733Z,99743.81
2023-03-22T05:25:58.360Z,99741.81
2023-03-22T05:28:49.580Z,99742.66
2023-03-22T05:31:40.046Z,99747.53
2023-03-22T05:34:35.424Z,99748.00
2023-03-22T05:37:26.336Z,99755.13
2023-03-22T05:40:10.374Z,99759.28
2023-03-22T05:43:02.945Z,99756.00
2023-03-22T05:45:49.325Z,99754.47
2023-03-22T05:48:46.023Z,99762.66
2023-03-22T05:51:30.797Z,99766.72
2023-03-22T05:54:12.543Z,99765.84
2023-03-22T05:57:11.632Z,99769.59
2023-03-22T05:59:54.206Z,99773.72
2023-03-22T06:02:38.585Z,99784.47
2023-03-22T06:05:27.863Z,99785.16
2023-03-22T06:08:07.468Z,99778.69
2023-03-22T06:10:47.350Z,99784.28
2023-03-22T06:13:35.195Z,99798.59
2023-03-22T06:16:15.783Z,99782.94
2023-03-22T06:19:00.590Z,99790.63
2023-03-22T06:21:53.420Z,99791.72
2023-03-22T06:24:42.475Z,99794.00
2023-03-22T06:27:27.499Z,99795.50
2023-03-22T06:30:12.396Z,99789.03
2023-03-22T06:33:13.388Z,99782.06
2023-03-22T06:39:21.568Z,99792.81
2023-03-22T06:42:02.585Z,99799.56
2023-03-22T06:44:50.322Z,99802.00
2023-03-22T06:47:51.567Z,99797.97
2023-03-22T06:50:44.448Z,99807.53
2023-03-22T06:53:29.147Z,99812.03
2023-03-22T06:56:07.433Z,99805.63
2023-03-22T06:59:08.042Z,99811.72
2023-03-22T07:01:48.382Z,99811.03
2023-03-22T07:04:37.754Z,99817.91
2023-03-22T07:07:19.366Z,99816.69
2023-03-22T07:10:05.787Z,99806.91
2023-03-22T07:12:52.491Z,99812.81
2023-03-22T07:15:39.521Z,99816.25
2023-03-22T07:18:37.793Z,99817.44
2023-03-22T07:21:23.008Z,99823.47
2023-03-22T07:24:12.398Z,99821.97
2023-03-22T07:27:00.958Z,99824.69
2023-03-22T07:29:45.691Z,99826.09
2023-03-22T07:32:33.957Z,99823.81
2023-03-22T07:35:19.181Z,99824.34
2023-03-22T07:38:05.363Z,99822.81
2023-03-22T07:40:59.561Z,99827.69
2023-03-22T07:44:17.357Z,99814.69
2023-03-22T07:47:40.017Z,99804.72
2023-03-22T07:50:42.952Z,99807.34
2023-03-22T07:53:23.796Z,99804.13
2023-03-22T07:56:07.934Z,99808.22
2023-03-22T07:58:55.023Z,99809.13
2023-03-22T08:01:44.753Z,99808.88
2023-03-22T08:04:51.806Z,99806.75
2023-03-22T08:07:42.783Z,99800.94
2023-03-22T08:10:29.252Z,99800.84
2023-03-22T08:13:13.818Z,99798.22
2023-03-22T08:16:08.256Z,99797.44
2023-03-22T08:18:55.643Z,99799.50
2023-03-22T08:21:42.325Z,99798.94
2023-03-22T08:24:51.530Z,99802.19
2023-03-22T08:27:53.460Z,99798.88
2023-03-22T08:30:40.566Z,99809.94
2023-03-22T08:33:30.044Z,99809.97
2023-03-22T08:36:29.153Z,99810.16
2023-03-22T08:39:14.405Z,99814.66
2023-03-22T08:41:57.434Z,99811.63
2023-03-22T08:45:00.327Z,99813.06
2023-03-22T08:47:44.481Z,99817.75
2023-03-22T08:50:31.134Z,99819.47
2023-03-22T08:53:21.440Z,99813.28
2023-03-22T08:56:17.160Z,99813.28
2023-03-22T08:59:16.906Z,99815.88
2023-03-22T09:02:17.242Z,99813.53
2023-03-22T09:05:06.304Z,99819.25
2023-03-22T09:08:18.263Z,99823.59
2023-03-22T09:11:04.410Z,99823.78
2023-03-22T09:13:51.154Z,99818.47
2023-03-22T09:16:45.764Z,99824.88
2023-03-22T09:19:29.640Z,99830.38
2023-03-22T09:22:25.633Z,99819.75
2023-03-22T09:25:12.977Z,99813.81
2023-03-22T09:28:04.228Z,99814.69
2023-03-22T09:30:41.538Z,99813.81
2023-03-22T09:33:32.111Z,99813.94
2023-03-22T09:36:20.357Z,99812.34
2023-03-22T09:39:12.588Z,99795.75
2023-03-22T09:42:06.357Z,99795.44
2023-03-22T09:45:09.689Z,99797.84
2023-03-22T09:48:05.793Z,99788.69
2023-03-22T09:50:47.107Z,99789.94
2023-03-22T09:53:34.446Z,99792.00
2023-03-22T09:56:38.977Z,99802.03
2023-03-22T09:59:28.197Z,99791.38
2023-03-22T10:02:28.467Z,99799.28
2023-03-22T10:05:25.995Z,99783.13
2023-03-22T10:08:34.499Z,99789.03
2023-03-22T10:11:38.327Z,99784.78
2023-03-22T10:14:55.527Z,99779.13
2023-03-22T10:17:42.738Z,99781.50
2023-03-22T10:20:47.833Z,99784.22
2023-03-22T10:23:50.660Z,99787.03
2023-03-22T10:26:51.727Z,99784.88
2023-03-22T10:29:46.392Z,99778.44
2023-03-22T10:32:56.689Z,99786.59
2023-03-22T10:35:42.307Z,99770.22
2023-03-22T10:38:26.577Z,99776.88
2023-03-22T10:41:13.660Z,99779.72
2023-03-22T10:44:04.313Z,99785.22
2023-03-22T10:46:47.970Z,99772.94
2023-03-22T10:49:35.442Z,99777.03
2023-03-22T10:52:40.318Z,99779.16
2023-03-22T10:55:26.527Z,99774.03
2023-03-22T10:58:30.098Z,99766.09
2023-03-22T11:01:41.948Z,99771.03
2023-03-22T11:04:45.031Z,99758.97
2023-03-22T11:08:06.930Z,99751.28
2023-03-22T11:10:58.114Z,99762.63
2023-03-22T11:13:44.207Z,99751.22
2023-03-22T11:16:30.702Z,99749.88
2023-03-22T11:19:40.661Z,99739.81
2023-03-22T11:22:44.095Z,99737.59
2023-03-22T11:25:43.005Z,99727.75
2023-03-22T11:28:59.079Z,99737.09
2023-03-22T11:31:59.097Z,99731.59
2023-03-22T11:34:43.472Z,99731.59
2023-03-22T11:37:40.175Z,99728.59
2023-03-22T11:40:34.947Z,99728.00
2023-03-22T11:43:25.248Z,99726.38
2023-03-22T11:46:12.389Z,99720.59
2023-03-22T11:49:00.974Z,99718.34
2023-03-22T11:51:54.313Z,99715.34
2023-03-22T11:54:48.966Z,99711.75
2023-03-22T11:57:37.990Z,99716.63
2023-03-22T12:00:26.786Z,99709.84
2023-03-22T12:03:19.485Z,99708.22
2023-03-22T12:06:30.631Z,99709.66
2023-03-22T12:09:46.273Z,99710.53
2023-03-22T12:12:43.222Z,99711.34
2023-03-22T12:15:49.165Z,99708.56
2023-03-22T12:18:36.622Z,99706.91
2023-03-22T12:21:19.381Z,99710.75
2023-03-22T12:24:06.400Z,99710.66
2023-03-22T12:26:57.644Z,99708.97
2023-03-22T12:29:52.856Z,99707.81
2023-03-22T12:32:44.131Z,99705.09
2023-03-22T12:35:34.506Z,99705.59
2023-03-22T12:38:36.104Z,99699.59
2023-03-22T12:41:41.190Z,99711.81
2023-03-22T12:44:43.392Z,99714.44
2023-03-22T12:47:47.456Z,99707.31
2023-03-22T12:50:42.909Z,99708.13
2023-03-22T12:53:31.344Z,99702.66
2023-03-22T12:56:18.422Z,99705.16
2023-03-22T12:59:08.325Z,99700.03
2023-03-22T13:02:19.757Z,99702.00
2023-03-22T13:05:06.975Z,99691.06
2023-03-22T13:08:08.054Z,99695.16
2023-03-22T13:11:01.334Z,99686.47
2023-03-22T13:14:20.200Z,99686.84
2023-03-22T13:17:04.611Z,99686.59
2023-03-22T13:20:11.056Z,99673.53
2023-03-22T13:23:08.960Z,99675.72
2023-03-22T13:26:08.047Z,99674.06
2023-03-22T13:28:58.006Z,99675.44
2023-03-22T13:31:49.394Z,99671.91
2023-03-22T13:34:44.959Z,99661.78
2023-03-22T13:38:13.732Z,99651.13
2023-03-22T13:41:22.281Z,99652.78
2023-03-22T13:44:24.313Z,99653.88
2023-03-22T13:47:35.843Z,99653.31
2023-03-22T13:50:36.346Z,99654.69
2023-03-22T13:53:28.007Z,99647.84
2023-03-22T13:56:09.093Z,99650.56
2023-03-22T13:59:07.068Z,99651.13
2023-03-22T14:02:04.377Z,99647.03
2023-03-22T14:05:17.316Z,99638.53
2023-03-22T14:08:21.981Z,99637.16
2023-03-22T14:11:20.245Z,99647.28
2023-03-22T14:14:13.315Z,99636.91
2023-03-22T14:17:18.136Z,99639.38
2023-03-22T14:20:05.358Z,99636.91
